createdAt,value
2022-11-20T00:00:51.370Z,89.93
2022-11-20T00:03:18.353Z,90.31
2022-11-20T00:05:45.480Z,91.29
2022-11-20T00:08:12.801Z,92.01
2022-11-20T00:10:42.483Z,91.21
2022-11-20T00:13:09.191Z,90.99
2022-11-20T00:15:35.761Z,90.52
2022-11-20T00:18:02.405Z,90.44
2022-11-20T00:20:28.996Z,90.28
2022-11-20T00:22:55.785Z,89.90
2022-11-20T00:25:22.494Z,90.54
2022-11-20T00:27:49.057Z,90.38
2022-11-20T00:30:15.939Z,90.33
2022-11-20T00:32:42.682Z,89.96
2022-11-20T00:35:09.504Z,89.60
2022-11-20T00:37:36.153Z,89.31
2022-11-20T00:40:02.880Z,89.87
2022-11-20T00:42:29.769Z,90.26
2022-11-20T00:44:56.460Z,90.58
2022-11-20T00:47:23.070Z,90.11
2022-11-20T00:49:49.647Z,90.06
2022-11-20T00:52:16.216Z,90.07
2022-11-20T00:54:42.865Z,89.78
2022-11-20T00:57:09.447Z,89.43
2022-11-20T00:59:36.140Z,90.35
2022-11-20T01:02:02.950Z,89.73
2022-11-20T01:04:30.117Z,89.74
2022-11-20T01:06:56.701Z,89.50
2022-11-20T01:09:23.691Z,89.34
2022-11-20T01:11:50.482Z,88.38
2022-11-20T01:14:20.088Z,88.64
2022-11-20T01:16:49.202Z,89.00
2022-11-20T01:19:21.037Z,88.05
2022-11-20T01:21:51.293Z,88.47
2022-11-20T01:24:20.043Z,89.74
2022-11-20T01:26:49.482Z,90.69
2022-11-20T01:29:20.290Z,90.71
2022-11-20T01:31:47.217Z,90.66
2022-11-20T01:34:16.703Z,89.63
2022-11-20T01:36:45.205Z,89.78
2022-11-20T01:39:18.130Z,87.92
2022-11-20T01:42:09.641Z,86.80
2022-11-20T01:44:49.255Z,89.37
2022-11-20T01:47:22.073Z,90.39
2022-11-20T01:49:53.677Z,90.21
2022-11-20T01:52:25.167Z,89.42
2022-11-20T01:55:01.467Z,89.87
2022-11-20T01:57:31.778Z,89.58
2022-11-20T02:00:05.284Z,89.92
2022-11-20T02:02:41.779Z,89.24
2022-11-20T02:05:34.879Z,88.64
2022-11-20T02:08:03.271Z,89.02
2022-11-20T02:10:30.712Z,88.50
2022-11-20T02:13:16.277Z,87.60
2022-11-20T02:15:43.909Z,88.54
2022-11-20T02:18:12.593Z,88.49
2022-11-20T02:20:43.245Z,89.41
2022-11-20T02:23:17.870Z,89.01
2022-11-20T02:25:46.926Z,89.06
2022-11-20T02:28:14.137Z,91.14
2022-11-20T02:30:40.938Z,90.45
2022-11-20T02:33:07.780Z,89.73
2022-11-20T02:35:34.488Z,88.35
2022-11-20T02:38:03.616Z,89.08
2022-11-20T02:40:30.547Z,89.84
2022-11-20T02:42:57.871Z,88.84
2022-11-20T02:45:25.690Z,88.03
2022-11-20T02:47:52.722Z,88.83
2022-11-20T02:50:19.454Z,90.00
2022-11-20T02:52:46.270Z,89.65
2022-11-20T02:55:13.150Z,90.06
2022-11-20T02:57:39.774Z,89.32
2022-11-20T03:00:07.932Z,89.61
2022-11-20T03:02:34.745Z,91.37
2022-11-20T03:05:01.992Z,91.99
2022-11-20T03:07:28.686Z,90.63
2022-11-20T03:09:55.416Z,90.75
2022-11-20T03:12:22.078Z,90.30
2022-11-20T03:14:52.763Z,90.99
2022-11-20T03:17:20.104Z,89.79
2022-11-20T03:19:46.738Z,88.83
2022-11-20T03:22:13.301Z,87.43
2022-11-20T03:24:39.964Z,88.40
2022-11-20T03:27:06.530Z,90.80
2022-11-20T03:29:33.496Z,90.30
2022-11-20T03:32:00.140Z,90.87
2022-11-20T03:34:26.856Z,90.07
2022-11-20T03:36:53.429Z,90.38
2022-11-20T03:39:20.494Z,90.45
2022-11-20T03:41:47.382Z,89.94
2022-11-20T03:44:13.942Z,89.79
2022-11-20T03:46:40.657Z,88.83
2022-11-20T03:49:07.907Z,88.66
2022-11-20T03:51:36.719Z,88.51
2022-11-20T03:54:08.210Z,89.86
2022-11-20T03:56:37.747Z,89.95
2022-11-20T03:59:04.780Z,89.87
2022-11-20T04:01:34.701Z,88.87
2022-11-20T04:04:02.011Z,89.26
2022-11-20T04:06:30.947Z,87.87
2022-11-20T04:08:59.019Z,88.78
2022-11-20T04:11:31.554Z,89.18
2022-11-20T04:14:00.425Z,89.43
2022-11-20T04:16:29.989Z,89.05
2022-11-20T04:18:57.690Z,87.91
2022-11-20T04:21:24.858Z,89.38
2022-11-20T04:23:51.973Z,89.21
2022-11-20T04:26:18.512Z,89.50
2022-11-20T04:28:45.464Z,89.18
2022-11-20T04:31:13.794Z,89.89
2022-11-20T04:33:40.490Z,88.21
2022-11-20T04:36:08.200Z,89.01
2022-11-20T04:38:34.995Z,89.27
2022-11-20T04:41:02.370Z,89.39
2022-11-20T04:43:28.939Z,88.66
2022-11-20T04:45:56.207Z,88.80
2022-11-20T04:48:23.139Z,88.03
2022-11-20T04:50:49.611Z,90.32
2022-11-20T04:53:16.092Z,90.64
2022-11-20T04:55:42.846Z,90.76
2022-11-20T04:58:09.458Z,90.66
2022-11-20T05:00:36.133Z,89.86
2022-11-20T05:03:02.609Z,90.63
2022-11-20T05:05:29.156Z,90.81
2022-11-20T05:07:58.754Z,90.03
2022-11-20T05:10:28.542Z,90.06
2022-11-20T05:12:55.025Z,89.54
2022-11-20T05:15:21.583Z,88.60
2022-11-20T05:17:49.182Z,89.02
2022-11-20T05:20:15.915Z,89.29
2022-11-20T05:22:42.448Z,89.85
2022-11-20T05:25:09.048Z,90.06
2022-11-20T05:27:35.582Z,89.59
2022-11-20T05:30:02.384Z,89.08
2022-11-20T05:32:28.852Z,88.64
2022-11-20T05:34:55.284Z,89.25
2022-11-20T05:37:21.799Z,89.61
2022-11-20T05:39:48.287Z,88.85
2022-11-20T05:42:33.187Z,90.27
2022-11-20T05:45:00.208Z,90.16
2022-11-20T05:47:32.320Z,89.77
2022-11-20T05:49:58.850Z,89.72
2022-11-20T05:52:25.575Z,89.86
2022-11-20T05:54:52.157Z,89.41
2022-11-20T05:57:18.580Z,89.47
2022-11-20T05:59:45.139Z,89.58
2022-11-20T06:02:11.763Z,89.48
2022-11-20T06:04:38.361Z,89.21
2022-11-20T06:07:06.501Z,89.22
2022-11-20T06:09:33.228Z,88.11
2022-11-20T06:11:59.716Z,87.70
2022-11-20T06:14:26.151Z,88.88
2022-11-20T06:16:52.653Z,88.07
2022-11-20T06:19:19.291Z,88.64
2022-11-20T06:21:45.947Z,88.99
2022-11-20T06:24:12.518Z,88.38
2022-11-20T06:26:39.163Z,88.42
2022-11-20T06:29:05.597Z,88.37
2022-11-20T06:31:35.799Z,89.04
2022-11-20T06:34:02.254Z,90.11
2022-11-20T06:36:28.672Z,90.93
2022-11-20T06:38:55.139Z,90.31
2022-11-20T06:41:22.444Z,89.86
2022-11-20T06:43:49.024Z,89.96
2022-11-20T06:46:18.477Z,90.39
2022-11-20T06:48:45.363Z,90.97
2022-11-20T06:51:12.050Z,90.49
2022-11-20T06:53:38.758Z,91.18
2022-11-20T06:56:06.082Z,92.44
2022-11-20T06:58:33.178Z,92.29
2022-11-20T07:01:00.375Z,92.56
2022-11-20T07:03:27.039Z,92.34
2022-11-20T07:05:55.684Z,91.29
2022-11-20T07:08:22.084Z,90.72
2022-11-20T07:10:48.583Z,91.81
2022-11-20T07:13:15.193Z,91.37
2022-11-20T07:15:41.641Z,91.48
2022-11-20T07:18:08.213Z,91.70
2022-11-20T07:20:34.789Z,91.16
2022-11-20T07:23:01.240Z,90.74
2022-11-20T07:25:28.478Z,91.98
2022-11-20T07:28:01.284Z,91.72
2022-11-20T07:30:28.776Z,92.28
2022-11-20T07:32:56.311Z,92.19
2022-11-20T07:35:23.767Z,91.99
2022-11-20T07:37:50.234Z,92.42
2022-11-20T07:40:17.305Z,92.31
2022-11-20T07:42:50.980Z,92.05
2022-11-20T07:45:18.068Z,91.12
2022-11-20T07:47:44.595Z,91.12
2022-11-20T07:50:11.605Z,93.16
2022-11-20T07:52:38.272Z,93.86
2022-11-20T07:55:05.008Z,94.18
2022-11-20T07:57:31.585Z,93.13
2022-11-20T07:59:58.068Z,94.18
2022-11-20T08:02:24.531Z,93.88
2022-11-20T08:04:51.137Z,94.15
2022-11-20T08:07:17.656Z,94.11
2022-11-20T08:09:44.196Z,93.99
2022-11-20T08:12:36.644Z,93.51
2022-11-20T08:15:06.122Z,93.79
2022-11-20T08:17:35.000Z,93.99
2022-11-20T08:20:01.567Z,94.66
2022-11-20T08:22:28.155Z,93.29
2022-11-20T08:24:54.578Z,95.23
2022-11-20T08:27:21.020Z,94.93
2022-11-20T08:29:47.509Z,93.75
2022-11-20T08:32:13.938Z,93.66
2022-11-20T08:34:40.468Z,93.41
2022-11-20T08:37:06.961Z,93.71
2022-11-20T08:39:33.423Z,93.97
2022-11-20T08:42:00.017Z,92.39
2022-11-20T08:44:26.511Z,92.70
2022-11-20T08:46:52.987Z,92.68
2022-11-20T08:49:20.104Z,92.49
2022-11-20T08:51:49.283Z,93.11
2022-11-20T08:54:16.151Z,92.63
2022-11-20T08:56:42.652Z,92.83
2022-11-20T09:01:55.662Z,94.16
2022-11-20T09:04:22.281Z,94.77
2022-11-20T09:06:51.890Z,94.56
2022-11-20T09:09:19.671Z,93.29
2022-11-20T09:11:46.368Z,93.00
2022-11-20T09:14:12.920Z,93.73
2022-11-20T09:16:39.429Z,95.39
2022-11-20T09:19:40.939Z,95.44
2022-11-20T09:21:58.264Z,96.81
2022-11-20T09:24:26.143Z,95.90
2022-11-20T09:26:52.742Z,96.47
2022-11-20T09:29:19.800Z,96.27
2022-11-20T09:31:46.456Z,96.49
2022-11-20T09:34:13.043Z,95.50
2022-11-20T09:36:39.628Z,95.83
2022-11-20T09:39:06.136Z,95.69
2022-11-20T09:41:48.832Z,94.98
2022-11-20T09:44:27.531Z,94.86
2022-11-20T09:46:56.795Z,94.50
2022-11-20T09:49:42.243Z,94.34
2022-11-20T09:52:27.543Z,95.79
2022-11-20T09:54:54.421Z,95.68
2022-11-20T09:57:26.394Z,95.47
2022-11-20T10:00:01.353Z,95.65
2022-11-20T10:02:43.396Z,96.38
2022-11-20T10:05:16.514Z,94.88
2022-11-20T10:08:01.436Z,95.77
2022-11-20T10:10:31.049Z,96.06
2022-11-20T10:13:12.741Z,94.41
2022-11-20T10:15:42.363Z,94.34
2022-11-20T10:18:19.898Z,93.73
2022-11-20T10:20:55.567Z,92.92
2022-11-20T10:23:31.179Z,92.78
2022-11-20T10:26:16.436Z,94.79
2022-11-20T10:28:55.405Z,93.75
2022-11-20T10:31:41.677Z,93.68
2022-11-20T10:34:22.428Z,93.20
2022-11-20T10:37:16.009Z,93.02
2022-11-20T10:39:48.924Z,92.31
2022-11-20T10:42:18.320Z,91.88
2022-11-20T10:45:04.470Z,92.01
2022-11-20T10:47:37.187Z,91.50
2022-11-20T10:50:06.852Z,91.54
2022-11-20T10:52:36.375Z,93.20
2022-11-20T10:55:21.811Z,92.11
2022-11-20T10:57:51.404Z,91.39
2022-11-20T11:00:18.422Z,92.28
2022-11-20T11:02:49.227Z,92.98
2022-11-20T11:05:22.270Z,93.46
2022-11-20T11:07:56.978Z,92.44
2022-11-20T11:10:39.153Z,93.36
2022-11-20T11:13:05.696Z,92.20
2022-11-20T11:15:39.761Z,92.32
2022-11-20T11:18:09.583Z,91.09
2022-11-20T11:20:37.301Z,91.14
2022-11-20T11:23:03.869Z,89.51
2022-11-20T11:25:31.765Z,90.44
2022-11-20T11:27:59.901Z,89.81
2022-11-20T11:30:27.100Z,90.03
2022-11-20T11:33:09.614Z,88.61
2022-11-20T11:35:39.986Z,87.58
2022-11-20T11:38:08.431Z,85.72
2022-11-20T11:40:36.195Z,86.55
2022-11-20T11:43:28.039Z,87.99
2022-11-20T11:45:55.814Z,85.99
2022-11-20T11:48:22.470Z,86.52
2022-11-20T11:50:49.955Z,88.00
2022-11-20T11:53:21.459Z,87.76
2022-11-20T11:55:55.871Z,85.38
2022-11-20T11:58:25.468Z,87.09
2022-11-20T12:01:24.742Z,86.23
2022-11-20T12:04:11.746Z,87.18
2022-11-20T12:06:39.323Z,86.47
2022-11-20T12:09:09.410Z,87.77
2022-11-20T12:11:54.321Z,85.70
2022-11-20T12:14:35.545Z,86.26
2022-11-20T12:17:02.970Z,88.49
2022-11-20T12:19:35.126Z,85.30
2022-11-20T12:22:05.013Z,83.77
2022-11-20T12:24:31.966Z,86.42
2022-11-20T12:26:58.548Z,86.88
2022-11-20T12:29:43.924Z,84.82
2022-11-20T12:32:16.844Z,82.51
2022-11-20T12:34:43.650Z,84.03
2022-11-20T12:37:29.132Z,84.57
2022-11-20T12:39:58.734Z,84.46
2022-11-20T12:42:50.492Z,85.19
2022-11-20T12:45:43.243Z,86.91
2022-11-20T12:48:12.984Z,85.86
2022-11-20T12:51:14.422Z,83.18
2022-11-20T12:54:01.903Z,85.79
2022-11-20T12:56:28.495Z,82.82
2022-11-20T12:59:10.464Z,83.57
2022-11-20T13:01:48.684Z,83.97
2022-11-20T13:04:15.106Z,84.61
2022-11-20T13:06:42.595Z,84.11
2022-11-20T13:09:15.267Z,82.79
2022-11-20T13:11:51.360Z,81.36
2022-11-20T13:14:25.818Z,82.06
2022-11-20T13:17:06.070Z,80.05
2022-11-20T13:19:33.316Z,81.93
2022-11-20T13:21:59.754Z,81.79
2022-11-20T13:24:28.585Z,81.57
2022-11-20T13:27:06.055Z,81.16
2022-11-20T13:29:33.353Z,81.23
2022-11-20T13:32:15.257Z,81.74
2022-11-20T13:34:52.590Z,81.09
2022-11-20T13:37:33.611Z,81.42
2022-11-20T13:40:12.573Z,81.76
2022-11-20T13:42:59.468Z,82.52
2022-11-20T13:45:27.460Z,80.76
2022-11-20T13:47:54.950Z,80.54
2022-11-20T13:51:32.050Z,80.88
2022-11-20T13:56:17.288Z,81.78
2022-11-20T13:59:14.599Z,82.44
2022-11-20T14:01:46.294Z,81.80
2022-11-20T14:04:21.463Z,81.40
2022-11-20T14:06:50.156Z,81.05
2022-11-20T14:09:28.986Z,81.13
2022-11-20T14:11:55.692Z,81.54
2022-11-20T14:14:26.076Z,81.77
2022-11-20T14:16:54.429Z,81.79
2022-11-20T14:19:25.987Z,80.74
2022-11-20T14:22:12.589Z,81.71
2022-11-20T14:24:39.528Z,82.87
2022-11-20T14:27:12.812Z,83.22
2022-11-20T14:29:49.097Z,81.61
2022-11-20T14:32:18.268Z,81.67
2022-11-20T14:34:47.472Z,82.95
2022-11-20T14:37:20.674Z,83.00
2022-11-20T14:39:53.454Z,83.50
2022-11-20T14:42:21.530Z,83.75
2022-11-20T14:44:50.520Z,84.76
2022-11-20T14:47:22.018Z,84.70
2022-11-20T14:49:50.316Z,84.85
2022-11-20T14:52:27.232Z,84.87
2022-11-20T14:55:00.683Z,84.35
2022-11-20T14:57:30.214Z,84.83
2022-11-20T15:00:15.386Z,84.75
2022-11-20T15:02:47.103Z,84.58
2022-11-20T15:05:14.760Z,84.51
2022-11-20T15:07:46.722Z,85.26
2022-11-20T15:10:24.597Z,84.41
2022-11-20T15:13:06.109Z,85.17
2022-11-20T15:15:44.890Z,85.33
2022-11-20T15:18:16.762Z,86.00
2022-11-20T15:20:44.591Z,84.73
2022-11-20T15:23:13.591Z,84.34
2022-11-20T15:25:43.618Z,84.91
2022-11-20T15:28:22.029Z,84.28
2022-11-20T15:30:50.515Z,84.24
2022-11-20T15:33:18.364Z,84.44
2022-11-20T15:35:45.489Z,84.75
2022-11-20T15:38:12.123Z,85.72
2022-11-20T15:40:38.848Z,85.86
2022-11-20T15:43:12.648Z,85.68
2022-11-20T15:45:50.552Z,85.82
2022-11-20T15:48:20.664Z,85.38
2022-11-20T15:51:04.161Z,85.36
2022-11-20T15:53:30.839Z,85.49
2022-11-20T15:55:57.460Z,85.23
2022-11-20T15:58:25.172Z,84.45
2022-11-20T16:00:52.048Z,83.66
2022-11-20T16:03:19.259Z,84.94
2022-11-20T16:05:45.873Z,85.52
2022-11-20T16:08:12.519Z,85.35
2022-11-20T16:10:40.164Z,85.02
2022-11-20T16:13:33.833Z,84.87
2022-11-20T16:16:14.154Z,84.66
2022-11-20T16:18:42.191Z,85.24
2022-11-20T16:21:14.067Z,85.72
2022-11-20T16:23:41.609Z,85.84
2022-11-20T16:26:12.398Z,85.51
2022-11-20T16:28:39.151Z,85.50
2022-11-20T16:31:17.653Z,84.88
2022-11-20T16:33:44.318Z,84.79
2022-11-20T16:36:12.751Z,84.98
2022-11-20T16:38:39.962Z,84.92
2022-11-20T16:41:07.302Z,84.19
2022-11-20T16:43:34.397Z,84.74
2022-11-20T16:46:04.492Z,86.30
2022-11-20T16:48:31.082Z,86.67
2022-11-20T16:50:57.697Z,86.41
2022-11-20T16:53:24.336Z,87.22
2022-11-20T16:55:50.929Z,87.44
2022-11-20T16:58:17.695Z,86.63
2022-11-20T17:00:51.187Z,86.41
2022-11-20T17:03:19.205Z,87.14
2022-11-20T17:05:46.052Z,86.64
2022-11-20T17:08:12.592Z,85.73
2022-11-20T17:10:39.216Z,85.98
2022-11-20T17:13:05.778Z,86.04
2022-11-20T17:15:32.388Z,85.93
2022-11-20T17:17:58.982Z,86.10
2022-11-20T17:20:25.561Z,86.30
2022-11-20T17:22:52.092Z,85.81
2022-11-20T17:25:18.842Z,86.06
2022-11-20T17:27:45.451Z,86.06
2022-11-20T17:30:12.142Z,85.16
2022-11-20T17:32:39.812Z,83.49
2022-11-20T17:35:06.644Z,83.30
2022-11-20T17:37:33.444Z,82.56
2022-11-20T17:40:00.183Z,83.55
2022-11-20T17:42:26.777Z,84.46
2022-11-20T17:44:53.684Z,84.60
2022-11-20T17:47:20.811Z,83.93
2022-11-20T17:49:54.386Z,84.62
2022-11-20T17:52:22.664Z,84.21
2022-11-20T17:54:49.256Z,84.32
2022-11-20T17:57:34.233Z,84.34
2022-11-20T18:00:00.856Z,83.73
2022-11-20T18:02:27.630Z,84.12
2022-11-20T18:04:54.255Z,84.00
2022-11-20T18:07:20.933Z,84.68
2022-11-20T18:09:47.541Z,84.85
2022-11-20T18:12:14.230Z,84.88
2022-11-20T18:14:41.759Z,84.83
2022-11-20T18:17:11.863Z,87.46
2022-11-20T18:19:48.036Z,89.48
2022-11-20T18:22:31.422Z,92.28
2022-11-20T18:24:58.366Z,93.01
2022-11-20T18:27:25.013Z,92.93
2022-11-20T18:29:52.321Z,94.52
2022-11-20T18:32:22.760Z,95.75
2022-11-20T18:34:50.007Z,98.11
2022-11-20T18:37:16.980Z,99.06
2022-11-20T18:39:44.065Z,100.00
2022-11-20T18:42:34.520Z,100.00
2022-11-20T18:45:05.144Z,100.00
2022-11-20T18:47:37.299Z,100.00
2022-11-20T18:50:05.752Z,100.00
2022-11-20T18:52:35.183Z,100.00
2022-11-20T18:55:02.896Z,100.00
2022-11-20T18:57:29.962Z,100.00
2022-11-20T19:00:03.486Z,100.00
2022-11-20T19:02:34.471Z,100.00
2022-11-20T19:05:05.364Z,100.00
2022-11-20T19:07:32.010Z,100.00
2022-11-20T19:10:03.462Z,100.00
2022-11-20T19:12:30.760Z,100.00
2022-11-20T19:14:57.671Z,100.00
2022-11-20T19:17:24.245Z,100.00
2022-11-20T19:19:51.181Z,100.00
2022-11-20T19:22:17.894Z,100.00
2022-11-20T19:24:44.465Z,100.00
2022-11-20T19:27:11.074Z,100.00
2022-11-20T19:29:38.456Z,100.00
2022-11-20T19:32:05.192Z,100.00
2022-11-20T19:34:31.914Z,100.00
2022-11-20T19:37:00.659Z,100.00
2022-11-20T19:39:27.430Z,100.00
2022-11-20T19:41:54.252Z,100.00
2022-11-20T19:44:21.006Z,100.00
2022-11-20T19:46:47.767Z,100.00
2022-11-20T19:49:14.910Z,100.00
2022-11-20T19:51:49.423Z,100.00
2022-11-20T19:54:16.985Z,100.00
2022-11-20T19:56:45.249Z,100.00
2022-11-20T19:59:12.228Z,100.00
2022-11-20T20:01:39.639Z,100.00
2022-11-20T20:04:07.161Z,100.00
2022-11-20T20:06:36.179Z,100.00
2022-11-20T20:09:06.141Z,100.00
2022-11-20T20:11:34.324Z,100.00
2022-11-20T20:14:05.963Z,100.00
2022-11-20T20:16:32.630Z,100.00
2022-11-20T20:19:01.733Z,100.00
2022-11-20T20:21:30.511Z,100.00
2022-11-20T20:23:58.162Z,100.00
2022-11-20T20:26:26.020Z,100.00
2022-11-20T20:28:52.829Z,100.00
2022-11-20T20:31:23.062Z,100.00
2022-11-20T20:33:50.015Z,100.00
2022-11-20T20:36:19.115Z,100.00
2022-11-20T20:38:46.506Z,100.00
2022-11-20T20:41:19.478Z,100.00
2022-11-20T20:44:05.134Z,100.00
2022-11-20T20:46:32.168Z,100.00
2022-11-20T20:48:59.663Z,100.00
2022-11-20T20:51:26.262Z,100.00
2022-11-20T20:53:53.758Z,100.00
2022-11-20T20:56:20.416Z,100.00
2022-11-20T20:58:46.974Z,100.00
2022-11-20T21:01:15.606Z,100.00
2022-11-20T21:03:42.335Z,100.00
2022-11-20T21:06:10.494Z,100.00
2022-11-20T21:08:40.608Z,100.00
2022-11-20T21:11:11.085Z,100.00
2022-11-20T21:13:39.162Z,100.00
2022-11-20T21:16:06.157Z,100.00
2022-11-20T21:18:33.341Z,100.00
2022-11-20T21:21:19.115Z,100.00
2022-11-20T21:23:46.701Z,100.00
2022-11-20T21:26:14.712Z,100.00
2022-11-20T21:28:42.156Z,100.00
2022-11-20T21:31:12.017Z,100.00
2022-11-20T21:33:42.634Z,100.00
2022-11-20T21:36:11.106Z,100.00
2022-11-20T21:38:37.732Z,100.00
2022-11-20T21:41:06.331Z,100.00
2022-11-20T21:43:33.211Z,100.00
2022-11-20T21:46:02.699Z,100.00
2022-11-20T21:48:31.183Z,100.00
2022-11-20T21:51:07.013Z,100.00
2022-11-20T21:53:34.260Z,100.00
2022-11-20T21:56:01.124Z,100.00
2022-11-20T21:58:28.319Z,100.00
2022-11-20T22:00:55.051Z,100.00
2022-11-20T22:03:22.041Z,100.00
2022-11-20T22:05:56.613Z,100.00
2022-11-20T22:08:24.147Z,100.00
2022-11-20T22:10:59.136Z,100.00
2022-11-20T22:13:45.373Z,100.00
2022-11-20T22:16:12.586Z,100.00
2022-11-20T22:18:46.830Z,100.00
2022-11-20T22:21:15.455Z,100.00
2022-11-20T22:23:42.459Z,100.00
2022-11-20T22:26:14.523Z,100.00
2022-11-20T22:28:41.146Z,100.00
2022-11-20T22:31:10.047Z,100.00
2022-11-20T22:33:38.630Z,100.00
2022-11-20T22:36:06.578Z,100.00
2022-11-20T22:38:39.074Z,100.00
2022-11-20T22:41:16.444Z,100.00
2022-11-20T22:43:44.552Z,100.00
2022-11-20T22:46:13.040Z,100.00
2022-11-20T22:48:41.895Z,100.00
2022-11-20T22:51:14.022Z,100.00
2022-11-20T22:53:42.501Z,100.00
2022-11-20T22:56:12.472Z,100.00
2022-11-20T22:58:40.876Z,100.00
2022-11-20T23:01:18.948Z,100.00
2022-11-20T23:03:48.419Z,100.00
2022-11-20T23:06:18.447Z,100.00
2022-11-20T23:08:45.954Z,100.00
2022-11-20T23:11:18.208Z,100.00
2022-11-20T23:13:45.825Z,100.00
2022-11-20T23:16:17.657Z,100.00
2022-11-20T23:18:44.768Z,100.00
2022-11-20T23:21:13.520Z,100.00
2022-11-20T23:23:41.048Z,100.00
2022-11-20T23:26:10.998Z,100.00
2022-11-20T23:28:39.111Z,100.00
2022-11-20T23:31:06.363Z,100.00
2022-11-20T23:33:36.470Z,100.00
2022-11-20T23:36:03.909Z,100.00
2022-11-20T23:38:30.838Z,100.00
2022-11-20T23:40:57.692Z,100.00
2022-11-20T23:43:24.404Z,100.00
2022-11-20T23:45:57.442Z,100.00
2022-11-20T23:48:28.215Z,100.00
2022-11-20T23:50:55.140Z,100.00
2022-11-20T23:53:23.053Z,100.00
2022-11-20T23:55:54.625Z,100.00
2022-11-20T23:58:23.003Z,100.00
